Valle Di Andalusia — IBTJ — position and weather

sailwx.info

Track history (hours):
 
Tides and Currents Weather Stations Pressure Air Temp Water Temp Dewpoint Dewpoint Depression Visibility Wind Speed Wind Dir Waves Ship Positions

Valle Di Andalusia

Last reported at 2016-Jun-30 20:33 UTC. Time now 2016-Jun-30 21:22 UTC.
Position N 45°19' E 012°28'.

Length 176 m; draft 10.4 m.

Type: Tanker. MMSI: 247046200.

Date/timePositionNaut miles runAvg speedWind from/ knotsBaromVisibWave heightAir tempDewpointWater temp
2016-Jun-30 20:33N 45°19' E 012°28'0 0.0
2016-Jun-30 19:33N 45°19' E 012°28'0 0.0
2016-Jun-30 18:32N 45°19' E 012°28'0 0.0
2016-Jun-30 17:32N 45°19' E 012°28'0 0.0
2016-Jun-30 16:32N 45°19' E 012°28'0 0.0
2016-Jun-30 15:31N 45°19' E 012°28'0 0.0
2016-Jun-30 14:31N 45°19' E 012°28'0 0.0
2016-Jun-30 13:33N 45°19' E 012°28'0 0.0
2016-Jun-30 12:33N 45°19' E 012°28'0 0.1
2016-Jun-30 11:29N 45°19' E 012°28'0 0.0
2016-Jun-30 10:32N 45°19' E 012°28'0 0.1
2016-Jun-30 09:32N 45°19' E 012°28'0 0.1
2016-Jun-30 08:31N 45°19' E 012°28'0 0.0
2016-Jun-30 07:28N 45°19' E 012°28'5 5.5
2016-Jun-30 06:33N 45°16' E 012°34'1212.3
2016-Jun-30 05:33N 45°08' E 012°47'1211.8
2016-Jun-30 04:33N 44°58' E 012°55'1212.1
2016-Jun-30 03:33N 44°47' E 013°01'1212.4
2016-Jun-30 02:33N 44°35' E 013°06'1212.4
2016-Jun-30 01:33N 44°23' E 013°12'1211.8
2016-Jun-30 00:33N 44°13' E 013°22'1412.0
2016-Jun-29 23:22N 44°05' E 013°37'1011.9
2016-Jun-29 22:33N 43°59' E 013°48'2611.8
2016-Jun-29 20:23N 43°47' E 014°19'5312.6
2016-Jun-29 16:10N 43°07' E 015°09'330 9.3
2016-Jun-28 04:33N 37°40' E 016°01'1111.4
2016-Jun-28 03:33N 37°30' E 015°54'1511.9
2016-Jun-28 02:20N 37°17' E 015°45'912.1
2016-Jun-28 01:33N 37°09' E 015°39'1211.6
2016-Jun-28 00:33N 36°59' E 015°32'1211.8
2016-Jun-27 23:33N 36°49' E 015°24'1111.5
2016-Jun-27 22:33N 36°39' E 015°17'1110.9
2016-Jun-27 21:33N 36°33' E 015°06'1211.7
2016-Jun-27 20:33N 36°34' E 014°52'1212.2
2016-Jun-27 19:33N 36°39' E 014°38'1212.4
2016-Jun-27 18:33N 36°44' E 014°23'1312.7
2016-Jun-27 17:33N 36°50' E 014°09'1212.4
2016-Jun-27 16:33N 36°55' E 013°56'1212.0
2016-Jun-27 15:33N 37°01' E 013°42'1211.9
2016-Jun-27 14:33N 37°06' E 013°29'1212.1
2016-Jun-27 13:33N 37°12' E 013°15'1212.1
2016-Jun-27 12:33N 37°17' E 013°02'2712.0
2016-Jun-27 10:16N 37°29' E 012°31'912.9
2016-Jun-27 09:33N 37°35' E 012°22'1313.2
2016-Jun-27 08:33N 37°44' E 012°09'1312.9
2016-Jun-27 07:33N 37°52' E 011°56'1312.4
2016-Jun-27 06:33N 37°58' E 011°42'1212.4
2016-Jun-27 05:33N 38°03' E 011°28'1313.1
2016-Jun-27 04:33N 38°10' E 011°14'1412.9
2016-Jun-27 03:27N 38°16' E 010°58'2412.6
2016-Jun-27 01:32N 38°28' E 010°31'2211.0
2016-Jun-26 23:33N 38°38' E 010°06'1212.3
2016-Jun-26 22:33N 38°44' E 009°52'1212.1
2016-Jun-26 21:33N 38°50' E 009°39'1312.3
2016-Jun-26 20:32N 38°55' E 009°24'1312.7
2016-Jun-26 19:32N 39°02' E 009°10'6 6.0
2016-Jun-26 18:32N 39°05' E 009°03'0 0.0
2016-Jun-26 17:32N 39°05' E 009°03'1 1.0
2016-Jun-26 16:33N 39°05' E 009°02'0 0.0
2016-Jun-26 15:33N 39°05' E 009°02'0 0.0
2016-Jun-26 14:33N 39°05' E 009°02'0 0.0
2016-Jun-26 13:32N 39°05' E 009°02'0 0.0
2016-Jun-26 12:33N 39°05' E 009°02'0 0.0
2016-Jun-26 11:33N 39°05' E 009°02'0 0.0
2016-Jun-26 10:33N 39°05' E 009°02'0 0.0
2016-Jun-26 09:33N 39°05' E 009°02'0 0.0
2016-Jun-26 08:32N 39°05' E 009°02'0 0.0
2016-Jun-26 07:33N 39°05' E 009°02'0 0.0
2016-Jun-26 06:32N 39°05' E 009°02'0 0.0
2016-Jun-26 05:33N 39°05' E 009°02'0 0.0
2016-Jun-26 04:33N 39°05' E 009°02'0 0.0
2016-Jun-26 03:33N 39°05' E 009°02'0 0.0
2016-Jun-26 02:33N 39°05' E 009°02'0 0.0
2016-Jun-26 01:33N 39°05' E 009°02'0 0.0
2016-Jun-26 00:33N 39°05' E 009°02'0 0.0
2016-Jun-25 23:33N 39°05' E 009°02'0 0.0
2016-Jun-25 22:33N 39°05' E 009°02'0 0.0
2016-Jun-25 21:33N 39°05' E 009°02'0 0.0
2016-Jun-25 20:33N 39°05' E 009°02'0 0.0
2016-Jun-25 19:33N 39°05' E 009°02'0 0.0
2016-Jun-25 18:33N 39°05' E 009°02'0 0.0
2016-Jun-25 17:33N 39°05' E 009°02'0 0.0
2016-Jun-25 16:32N 39°05' E 009°02'0 0.0
2016-Jun-25 15:33N 39°05' E 009°02'0 0.0
2016-Jun-25 14:33N 39°05' E 009°02'0 0.0
2016-Jun-25 13:32N 39°05' E 009°02'0 0.0
2016-Jun-25 12:33N 39°05' E 009°02'0 0.0
2016-Jun-25 11:32N 39°05' E 009°02'0 0.0
2016-Jun-25 10:33N 39°05' E 009°02'0 0.0
2016-Jun-25 09:33N 39°05' E 009°02'0 0.0
2016-Jun-25 08:33N 39°05' E 009°02'0 0.0
2016-Jun-25 07:32N 39°05' E 009°02'0 0.0
2016-Jun-25 06:33N 39°05' E 009°02'0 0.0
2016-Jun-25 05:32N 39°05' E 009°02'0 0.0
2016-Jun-25 04:33N 39°05' E 009°02'0 0.0
2016-Jun-25 03:33N 39°05' E 009°02'0 0.0
2016-Jun-25 02:32N 39°05' E 009°02'0 0.0
2016-Jun-25 01:33N 39°05' E 009°02'0 0.0
2016-Jun-25 00:33N 39°05' E 009°02'0 0.0
2016-Jun-24 23:33N 39°05' E 009°02'2 1.6
2016-Jun-24 22:33N 39°04' E 009°04'0 0.1
2016-Jun-24 21:33N 39°04' E 009°04'0 0.0
2016-Jun-24 20:33N 39°04' E 009°04'0 0.0
2016-Jun-24 19:32N 39°04' E 009°04'0 0.0
2016-Jun-24 18:32N 39°04' E 009°04'0 0.1
2016-Jun-24 17:32N 39°04' E 009°03'0 0.1
2016-Jun-24 16:31N 39°04' E 009°04'0 0.0
2016-Jun-24 15:31N 39°04' E 009°04'0 0.0
2016-Jun-24 14:33N 39°04' E 009°04'0 0.0
2016-Jun-24 13:33N 39°04' E 009°04'0 0.0
2016-Jun-24 12:32N 39°04' E 009°04'0 0.0
2016-Jun-24 11:32N 39°04' E 009°04'0 0.0
2016-Jun-24 10:32N 39°04' E 009°04'0 0.1
2016-Jun-24 09:31N 39°04' E 009°04'0 0.2
2016-Jun-24 08:31N 39°04' E 009°04'0 0.0
2016-Jun-24 07:33N 39°04' E 009°04'0 0.0
2016-Jun-24 04:32N 39°04' E 009°04'0 0.0
2016-Jun-24 03:31N 39°04' E 009°04'0 0.0
2016-Jun-24 02:25N 39°04' E 009°04'0 0.0
2016-Jun-24 01:31N 39°04' E 009°04'0 0.0
2016-Jun-24 00:33N 39°04' E 009°04'0 0.0
2016-Jun-23 23:33N 39°04' E 009°04'0 0.0
2016-Jun-23 22:32N 39°04' E 009°04'0 0.0
2016-Jun-23 21:32N 39°04' E 009°04'0 0.0
2016-Jun-23 20:28N 39°04' E 009°04'0 0.0
2016-Jun-23 19:31N 39°04' E 009°04'0 0.1
2016-Jun-23 18:31N 39°04' E 009°04'0 0.1
2016-Jun-23 17:33N 39°04' E 009°04'0 0.0
2016-Jun-23 16:33N 39°04' E 009°04'0 0.0
2016-Jun-23 15:32N 39°04' E 009°04'0 0.0
2016-Jun-23 14:32N 39°04' E 009°04'0 0.0
2016-Jun-23 13:31N 39°04' E 009°04'0 0.0
2016-Jun-23 12:31N 39°04' E 009°04'0 0.0
2016-Jun-23 11:31N 39°04' E 009°04'0 0.0
2016-Jun-23 10:33N 39°04' E 009°04'0 0.1
2016-Jun-23 09:33N 39°04' E 009°03'0 0.1
2016-Jun-23 08:32N 39°04' E 009°04'0 0.0
2016-Jun-23 07:32N 39°04' E 009°04'0 0.0
2016-Jun-23 05:31N 39°04' E 009°04'0 0.0
2016-Jun-23 04:27N 39°04' E 009°04'0 0.0
2016-Jun-23 03:33N 39°04' E 009°04'0 0.0
2016-Jun-23 02:33N 39°04' E 009°04'0 0.0
2016-Jun-23 01:32N 39°04' E 009°04'0 0.0
2016-Jun-23 00:32N 39°04' E 009°04'0 0.0
2016-Jun-22 23:31N 39°04' E 009°04'0 0.1
2016-Jun-22 22:31N 39°04' E 009°04'0 0.1
2016-Jun-22 21:34N 39°04' E 009°04'0 0.0
2016-Jun-22 20:33N 39°04' E 009°04'0 0.1
2016-Jun-22 19:33N 39°04' E 009°04'0 0.0
2016-Jun-22 18:29N 39°04' E 009°04'0 0.0
2016-Jun-22 17:32N 39°04' E 009°04'0 0.0
2016-Jun-22 16:31N 39°04' E 009°04'0 0.0
2016-Jun-22 15:31N 39°04' E 009°04'0 0.0
2016-Jun-22 14:33N 39°04' E 009°04'0 0.0
2016-Jun-22 13:33N 39°04' E 009°04'0 0.0
2016-Jun-22 12:33N 39°04' E 009°04'0 0.0
2016-Jun-22 11:32N 39°04' E 009°04'0 0.0
2016-Jun-22 10:32N 39°04' E 009°04'0 0.2
2016-Jun-22 09:31N 39°04' E 009°04'0 0.0
2016-Jun-22 08:31N 39°04' E 009°04'0 0.0
2016-Jun-22 07:33N 39°04' E 009°04'0 0.0
2016-Jun-22 06:32N 39°04' E 009°04'0 0.1
2016-Jun-22 05:33N 39°04' E 009°04'0 0.0
2016-Jun-22 04:32N 39°04' E 009°04'0 0.1
2016-Jun-22 03:32N 39°04' E 009°04'0 0.1
2016-Jun-22 02:31N 39°04' E 009°04'0 0.1
2016-Jun-22 01:31N 39°04' E 009°04'0 0.0
2016-Jun-22 00:33N 39°04' E 009°04'0 0.0
2016-Jun-21 23:33N 39°04' E 009°04'0 0.0
2016-Jun-21 22:33N 39°04' E 009°04'0 0.0
2016-Jun-21 21:31N 39°04' E 009°04'0 0.0
2016-Jun-21 20:32N 39°04' E 009°04'0 0.0
2016-Jun-21 19:31N 39°04' E 009°04'0 0.0
2016-Jun-21 18:31N 39°04' E 009°04'0 0.0
2016-Jun-21 17:33N 39°04' E 009°04'0 0.0
2016-Jun-21 16:33N 39°04' E 009°04'0 0.0
2016-Jun-21 15:32N 39°04' E 009°04'0 0.0
2016-Jun-21 14:32N 39°04' E 009°04'0 0.0
2016-Jun-21 12:28N 39°04' E 009°04'0 0.0
2016-Jun-21 11:25N 39°04' E 009°04'0 0.0
2016-Jun-21 10:33N 39°04' E 009°04'0 0.1
2016-Jun-21 09:33N 39°04' E 009°03'0 0.1
2016-Jun-21 08:31N 39°04' E 009°04'0 0.1
2016-Jun-21 07:33N 39°04' E 009°04'0 0.0
2016-Jun-21 06:33N 39°04' E 009°04'0 0.0
2016-Jun-21 04:32N 39°04' E 009°04'0 0.0
2016-Jun-21 03:32N 39°04' E 009°04'0 0.0
2016-Jun-21 02:31N 39°04' E 009°04'0 0.0
2016-Jun-21 01:31N 39°04' E 009°04'0 0.0
2016-Jun-21 00:33N 39°04' E 009°04'0 0.0
2016-Jun-20 23:30N 39°04' E 009°04'0 0.1
2016-Jun-20 22:32N 39°04' E 009°04'0 0.1
2016-Jun-20 21:32N 39°04' E 009°04'  
Track history (hours):
 
Tides and Currents Weather Stations Pressure Air Temp Water Temp Dewpoint Dewpoint Depression Visibility Wind Speed Wind Dir Waves Ship Positions

Valle Di Andalusia

Last reported at 2016-Jun-30 20:33 UTC. Time now 2016-Jun-30 21:22 UTC.
Position N 45°19' E 012°28'.

Length 176 m; draft 10.4 m.

Type: Tanker. MMSI: 247046200.

Date/timePositionNaut miles runAvg speedWind from/ knotsBaromVisibWave heightAir tempDewpointWater temp
2016-Jun-30 20:33N 45°19' E 012°28'0 0.0
2016-Jun-30 19:33N 45°19' E 012°28'0 0.0
2016-Jun-30 18:32N 45°19' E 012°28'0 0.0
2016-Jun-30 17:32N 45°19' E 012°28'0 0.0
2016-Jun-30 16:32N 45°19' E 012°28'0 0.0
2016-Jun-30 15:31N 45°19' E 012°28'0 0.0
2016-Jun-30 14:31N 45°19' E 012°28'0 0.0
2016-Jun-30 13:33N 45°19' E 012°28'0 0.0
2016-Jun-30 12:33N 45°19' E 012°28'0 0.1
2016-Jun-30 11:29N 45°19' E 012°28'0 0.0
2016-Jun-30 10:32N 45°19' E 012°28'0 0.1
2016-Jun-30 09:32N 45°19' E 012°28'0 0.1
2016-Jun-30 08:31N 45°19' E 012°28'0 0.0
2016-Jun-30 07:28N 45°19' E 012°28'5 5.5
2016-Jun-30 06:33N 45°16' E 012°34'1212.3
2016-Jun-30 05:33N 45°08' E 012°47'1211.8
2016-Jun-30 04:33N 44°58' E 012°55'1212.1
2016-Jun-30 03:33N 44°47' E 013°01'1212.4
2016-Jun-30 02:33N 44°35' E 013°06'1212.4
2016-Jun-30 01:33N 44°23' E 013°12'1211.8
2016-Jun-30 00:33N 44°13' E 013°22'1412.0
2016-Jun-29 23:22N 44°05' E 013°37'1011.9
2016-Jun-29 22:33N 43°59' E 013°48'2611.8
2016-Jun-29 20:23N 43°47' E 014°19'5312.6
2016-Jun-29 16:10N 43°07' E 015°09'330 9.3
2016-Jun-28 04:33N 37°40' E 016°01'1111.4
2016-Jun-28 03:33N 37°30' E 015°54'1511.9
2016-Jun-28 02:20N 37°17' E 015°45'912.1
2016-Jun-28 01:33N 37°09' E 015°39'1211.6
2016-Jun-28 00:33N 36°59' E 015°32'1211.8
2016-Jun-27 23:33N 36°49' E 015°24'1111.5
2016-Jun-27 22:33N 36°39' E 015°17'1110.9
2016-Jun-27 21:33N 36°33' E 015°06'1211.7
2016-Jun-27 20:33N 36°34' E 014°52'1212.2
2016-Jun-27 19:33N 36°39' E 014°38'1212.4
2016-Jun-27 18:33N 36°44' E 014°23'1312.7
2016-Jun-27 17:33N 36°50' E 014°09'1212.4
2016-Jun-27 16:33N 36°55' E 013°56'1212.0
2016-Jun-27 15:33N 37°01' E 013°42'1211.9
2016-Jun-27 14:33N 37°06' E 013°29'1212.1
2016-Jun-27 13:33N 37°12' E 013°15'1212.1
2016-Jun-27 12:33N 37°17' E 013°02'2712.0
2016-Jun-27 10:16N 37°29' E 012°31'912.9
2016-Jun-27 09:33N 37°35' E 012°22'1313.2
2016-Jun-27 08:33N 37°44' E 012°09'1312.9
2016-Jun-27 07:33N 37°52' E 011°56'1312.4
2016-Jun-27 06:33N 37°58' E 011°42'1212.4
2016-Jun-27 05:33N 38°03' E 011°28'1313.1
2016-Jun-27 04:33N 38°10' E 011°14'1412.9
2016-Jun-27 03:27N 38°16' E 010°58'2412.6
2016-Jun-27 01:32N 38°28' E 010°31'2211.0
2016-Jun-26 23:33N 38°38' E 010°06'1212.3
2016-Jun-26 22:33N 38°44' E 009°52'1212.1
2016-Jun-26 21:33N 38°50' E 009°39'1312.3
2016-Jun-26 20:32N 38°55' E 009°24'1312.7
2016-Jun-26 19:32N 39°02' E 009°10'6 6.0
2016-Jun-26 18:32N 39°05' E 009°03'0 0.0
2016-Jun-26 17:32N 39°05' E 009°03'1 1.0
2016-Jun-26 16:33N 39°05' E 009°02'0 0.0
2016-Jun-26 15:33N 39°05' E 009°02'0 0.0
2016-Jun-26 14:33N 39°05' E 009°02'0 0.0
2016-Jun-26 13:32N 39°05' E 009°02'0 0.0
2016-Jun-26 12:33N 39°05' E 009°02'0 0.0
2016-Jun-26 11:33N 39°05' E 009°02'0 0.0
2016-Jun-26 10:33N 39°05' E 009°02'0 0.0
2016-Jun-26 09:33N 39°05' E 009°02'0 0.0
2016-Jun-26 08:32N 39°05' E 009°02'0 0.0
2016-Jun-26 07:33N 39°05' E 009°02'0 0.0
2016-Jun-26 06:32N 39°05' E 009°02'0 0.0
2016-Jun-26 05:33N 39°05' E 009°02'0 0.0
2016-Jun-26 04:33N 39°05' E 009°02'0 0.0
2016-Jun-26 03:33N 39°05' E 009°02'0 0.0
2016-Jun-26 02:33N 39°05' E 009°02'0 0.0
2016-Jun-26 01:33N 39°05' E 009°02'0 0.0
2016-Jun-26 00:33N 39°05' E 009°02'0 0.0
2016-Jun-25 23:33N 39°05' E 009°02'0 0.0
2016-Jun-25 22:33N 39°05' E 009°02'0 0.0
2016-Jun-25 21:33N 39°05' E 009°02'0 0.0
2016-Jun-25 20:33N 39°05' E 009°02'0 0.0
2016-Jun-25 19:33N 39°05' E 009°02'0 0.0
2016-Jun-25 18:33N 39°05' E 009°02'0 0.0
2016-Jun-25 17:33N 39°05' E 009°02'0 0.0
2016-Jun-25 16:32N 39°05' E 009°02'0 0.0
2016-Jun-25 15:33N 39°05' E 009°02'0 0.0
2016-Jun-25 14:33N 39°05' E 009°02'0 0.0
2016-Jun-25 13:32N 39°05' E 009°02'0 0.0
2016-Jun-25 12:33N 39°05' E 009°02'0 0.0
2016-Jun-25 11:32N 39°05' E 009°02'0 0.0
2016-Jun-25 10:33N 39°05' E 009°02'0 0.0
2016-Jun-25 09:33N 39°05' E 009°02'0 0.0
2016-Jun-25 08:33N 39°05' E 009°02'0 0.0
2016-Jun-25 07:32N 39°05' E 009°02'0 0.0
2016-Jun-25 06:33N 39°05' E 009°02'0 0.0
2016-Jun-25 05:32N 39°05' E 009°02'0 0.0
2016-Jun-25 04:33N 39°05' E 009°02'0 0.0
2016-Jun-25 03:33N 39°05' E 009°02'0 0.0
2016-Jun-25 02:32N 39°05' E 009°02'0 0.0
2016-Jun-25 01:33N 39°05' E 009°02'0 0.0
2016-Jun-25 00:33N 39°05' E 009°02'0 0.0
2016-Jun-24 23:33N 39°05' E 009°02'2 1.6
2016-Jun-24 22:33N 39°04' E 009°04'0 0.1
2016-Jun-24 21:33N 39°04' E 009°04'0 0.0
2016-Jun-24 20:33N 39°04' E 009°04'0 0.0
2016-Jun-24 19:32N 39°04' E 009°04'0 0.0
2016-Jun-24 18:32N 39°04' E 009°04'0 0.1
2016-Jun-24 17:32N 39°04' E 009°03'0 0.1
2016-Jun-24 16:31N 39°04' E 009°04'0 0.0
2016-Jun-24 15:31N 39°04' E 009°04'0 0.0
2016-Jun-24 14:33N 39°04' E 009°04'0 0.0
2016-Jun-24 13:33N 39°04' E 009°04'0 0.0
2016-Jun-24 12:32N 39°04' E 009°04'0 0.0
2016-Jun-24 11:32N 39°04' E 009°04'0 0.0
2016-Jun-24 10:32N 39°04' E 009°04'0 0.1
2016-Jun-24 09:31N 39°04' E 009°04'0 0.2
2016-Jun-24 08:31N 39°04' E 009°04'0 0.0
2016-Jun-24 07:33N 39°04' E 009°04'0 0.0
2016-Jun-24 04:32N 39°04' E 009°04'0 0.0
2016-Jun-24 03:31N 39°04' E 009°04'0 0.0
2016-Jun-24 02:25N 39°04' E 009°04'0 0.0
2016-Jun-24 01:31N 39°04' E 009°04'0 0.0
2016-Jun-24 00:33N 39°04' E 009°04'0 0.0
2016-Jun-23 23:33N 39°04' E 009°04'0 0.0
2016-Jun-23 22:32N 39°04' E 009°04'0 0.0
2016-Jun-23 21:32N 39°04' E 009°04'0 0.0
2016-Jun-23 20:28N 39°04' E 009°04'0 0.0
2016-Jun-23 19:31N 39°04' E 009°04'0 0.1
2016-Jun-23 18:31N 39°04' E 009°04'0 0.1
2016-Jun-23 17:33N 39°04' E 009°04'0 0.0
2016-Jun-23 16:33N 39°04' E 009°04'0 0.0
2016-Jun-23 15:32N 39°04' E 009°04'0 0.0
2016-Jun-23 14:32N 39°04' E 009°04'0 0.0
2016-Jun-23 13:31N 39°04' E 009°04'0 0.0
2016-Jun-23 12:31N 39°04' E 009°04'0 0.0
2016-Jun-23 11:31N 39°04' E 009°04'0 0.0
2016-Jun-23 10:33N 39°04' E 009°04'0 0.1
2016-Jun-23 09:33N 39°04' E 009°03'0 0.1
2016-Jun-23 08:32N 39°04' E 009°04'0 0.0
2016-Jun-23 07:32N 39°04' E 009°04'0 0.0
2016-Jun-23 05:31N 39°04' E 009°04'0 0.0
2016-Jun-23 04:27N 39°04' E 009°04'0 0.0
2016-Jun-23 03:33N 39°04' E 009°04'0 0.0
2016-Jun-23 02:33N 39°04' E 009°04'0 0.0
2016-Jun-23 01:32N 39°04' E 009°04'0 0.0
2016-Jun-23 00:32N 39°04' E 009°04'0 0.0
2016-Jun-22 23:31N 39°04' E 009°04'0 0.1
2016-Jun-22 22:31N 39°04' E 009°04'0 0.1
2016-Jun-22 21:34N 39°04' E 009°04'0 0.0
2016-Jun-22 20:33N 39°04' E 009°04'0 0.1
2016-Jun-22 19:33N 39°04' E 009°04'0 0.0
2016-Jun-22 18:29N 39°04' E 009°04'0 0.0
2016-Jun-22 17:32N 39°04' E 009°04'0 0.0
2016-Jun-22 16:31N 39°04' E 009°04'0 0.0
2016-Jun-22 15:31N 39°04' E 009°04'0 0.0
2016-Jun-22 14:33N 39°04' E 009°04'0 0.0
2016-Jun-22 13:33N 39°04' E 009°04'0 0.0
2016-Jun-22 12:33N 39°04' E 009°04'0 0.0
2016-Jun-22 11:32N 39°04' E 009°04'0 0.0
2016-Jun-22 10:32N 39°04' E 009°04'0 0.2
2016-Jun-22 09:31N 39°04' E 009°04'0 0.0
2016-Jun-22 08:31N 39°04' E 009°04'0 0.0
2016-Jun-22 07:33N 39°04' E 009°04'0 0.0
2016-Jun-22 06:32N 39°04' E 009°04'0 0.1
2016-Jun-22 05:33N 39°04' E 009°04'0 0.0
2016-Jun-22 04:32N 39°04' E 009°04'0 0.1
2016-Jun-22 03:32N 39°04' E 009°04'0 0.1
2016-Jun-22 02:31N 39°04' E 009°04'0 0.1
2016-Jun-22 01:31N 39°04' E 009°04'0 0.0
2016-Jun-22 00:33N 39°04' E 009°04'0 0.0
2016-Jun-21 23:33N 39°04' E 009°04'0 0.0
2016-Jun-21 22:33N 39°04' E 009°04'0 0.0
2016-Jun-21 21:31N 39°04' E 009°04'0 0.0
2016-Jun-21 20:32N 39°04' E 009°04'0 0.0
2016-Jun-21 19:31N 39°04' E 009°04'0 0.0
2016-Jun-21 18:31N 39°04' E 009°04'0 0.0
2016-Jun-21 17:33N 39°04' E 009°04'0 0.0
2016-Jun-21 16:33N 39°04' E 009°04'0 0.0
2016-Jun-21 15:32N 39°04' E 009°04'0 0.0
2016-Jun-21 14:32N 39°04' E 009°04'0 0.0
2016-Jun-21 12:28N 39°04' E 009°04'0 0.0
2016-Jun-21 11:25N 39°04' E 009°04'0 0.0
2016-Jun-21 10:33N 39°04' E 009°04'0 0.1
2016-Jun-21 09:33N 39°04' E 009°03'0 0.1
2016-Jun-21 08:31N 39°04' E 009°04'0 0.1
2016-Jun-21 07:33N 39°04' E 009°04'0 0.0
2016-Jun-21 06:33N 39°04' E 009°04'0 0.0
2016-Jun-21 04:32N 39°04' E 009°04'0 0.0
2016-Jun-21 03:32N 39°04' E 009°04'0 0.0
2016-Jun-21 02:31N 39°04' E 009°04'0 0.0
2016-Jun-21 01:31N 39°04' E 009°04'0 0.0
2016-Jun-21 00:33N 39°04' E 009°04'0 0.0
2016-Jun-20 23:30N 39°04' E 009°04'0 0.1
2016-Jun-20 22:32N 39°04' E 009°04'0 0.1
2016-Jun-20 21:32N 39°04' E 009°04'  

Dump ship's entire track history